Time;durP1;ratioP1;P1;durP2;ratioP2;P2;SDS_P1;SDS_P2;PMS_P1;PMS_P2;Temp;Humidity;BMP_temperature;BMP_pressure;BME280_temperature;BME280_humidity;BME280_pressure;Samples;Min_cycle;Max_cycle;Signal;HPM_P1;HPM_P2
2022/05/23 00:01:38;;;;;;;;;;;;;;;;;;5090965;28;1970;-79
2022/05/23 00:04:03;;;;;;;;;;;;;;;;;;5064992;28;1198;-79
2022/05/23 00:06:49;;;;;;;;;;;;;;;;;;5060411;28;1176;-79
2022/05/23 00:09:17;;;;;;;;;;;;;;;;;;5073670;28;1163;-79
2022/05/23 00:11:46;;;;;;;;;;;;;;;;;;5070222;28;1141;-79
2022/05/23 00:14:11;;;;;;;;;;;;;;;;;;5068346;28;1160;-79
2022/05/23 00:16:40;;;;;;;;;;;;;;;;;;5076262;28;1137;-79
2022/05/23 00:19:06;;;;;;;;;;;;;;;;;;5080744;28;1200;-78
2022/05/23 00:21:35;;;;;;;;;;;;;;;;;;5071318;28;1913;-79
2022/05/23 00:24:00;;;;;;;;;;;;;;;;;;5064603;28;1089;-79
2022/05/23 00:26:26;;;;;;;;;;;;;;;;;;5055105;28;1452;-78
2022/05/23 00:28:51;;;;;;;;;;;;;;;;;;5076574;28;1169;-78
2022/05/23 00:31:16;;;;;;;;;;;;;;;;;;5081223;28;1207;-77
2022/05/23 00:37:00;;;;;;;;;;;;;;;;;;5075865;28;1046;-79
2022/05/23 00:39:18;;;;;;;;;;;;;;;;;;5072292;28;1148;-79
2022/05/23 00:44:33;;;;;;;;;;;;;;;;;;5083452;28;1039;-78
2022/05/23 00:47:00;;;;;;;;;;;;;;;;;;5058279;28;1491;-79
2022/05/23 00:49:27;;;;;;;;;;;;;;;;;;5073144;28;1276;-78
2022/05/23 00:51:53;;;;;;;;;;;;;;;;;;5064457;28;1033;-78
2022/05/23 00:54:19;;;;;;;;;;;;;;;;;;5048260;28;1216;-78
2022/05/23 00:56:48;;;;;;;;;;;;;;;;;;5068708;28;1196;-78
2022/05/23 00:59:21;;;;;;;;;;;;;;;;;;5087536;28;1184;-79
2022/05/23 01:01:50;;;;;;;;;;;;;;;;;;5057822;28;1870;-79
2022/05/23 01:04:16;;;;;;;;;;;;;;;;;;5078652;28;1385;-78
2022/05/23 01:06:42;;;;;;;;;;;;;;;;;;5063677;28;1165;-79
2022/05/23 01:09:07;;;;;;;;;;;;;;;;;;5067067;28;1370;-79
2022/05/23 01:11:32;;;;;;;;;;;;;;;;;;5080321;28;1153;-79
2022/05/23 01:13:57;;;;;;;;;;;;;;;;;;5077119;28;1287;-78
2022/05/23 01:16:24;;;;;;;;;;;;;;;;;;5056747;28;1125;-79
2022/05/23 01:18:53;;;;;;;;;;;;;;;;;;5067237;28;1236;-78
2022/05/23 01:21:27;;;;;;;;;;;;;;;;;;5067788;28;2244;-78
2022/05/23 01:24:12;;;;;;;;;;;;;;;;;;5041852;28;1137;-78
2022/05/23 01:26:38;;;;;;;;;;;;;;;;;;5048521;28;1377;-78
2022/05/23 01:29:10;;;;;;;;;;;;;;;;;;5066514;28;1109;-78
2022/05/23 01:31:35;;;;;;;;;;;;;;;;;;5080209;28;1180;-78
2022/05/23 01:34:00;;;;;;;;;;;;;;;;;;5057112;28;1272;-78
2022/05/23 01:36:25;;;;;;;;;;;;;;;;;;5055197;28;1292;-77
2022/05/23 01:38:58;;;;;;;;;;;;;;;;;;5047141;28;1196;-78
2022/05/23 01:41:24;;;;;;;;;;;;;;;;;;5089302;28;1910;-78
2022/05/23 01:43:53;;;;;;;;;;;;;;;;;;5053179;28;1180;-77
2022/05/23 01:46:18;;;;;;;;;;;;;;;;;;5069722;28;1243;-79
2022/05/23 01:48:44;;;;;;;;;;;;;;;;;;5065966;28;1271;-78
2022/05/23 01:51:09;;;;;;;;;;;;;;;;;;5050179;28;1404;-78
2022/05/23 01:53:35;;;;;;;;;;;;;;;;;;5064512;28;1160;-78
2022/05/23 01:56:06;;;;;;;;;;;;;;;;;;5046737;28;1326;-77
2022/05/23 02:01:15;;;;;;;;;;;;;;;;;;5072499;28;1894;-78
2022/05/23 02:03:44;;;;;;;;;;;;;;;;;;5062662;28;1211;-79
2022/05/23 02:06:10;;;;;;;;;;;;;;;;;;5066284;28;1222;-78
2022/05/23 02:08:35;;;;;;;;;;;;;;;;;;5076123;28;1145;-79
2022/05/23 02:11:01;;;;;;;;;;;;;;;;;;5083111;28;1159;-78
2022/05/23 02:13:26;;;;;;;;;;;;;;;;;;5066493;28;1118;-79
2022/05/23 02:15:57;;;;;;;;;;;;;;;;;;5074050;28;1189;-79
2022/05/23 02:18:22;;;;;;;;;;;;;;;;;;5046874;28;1197;-78
2022/05/23 02:20:48;;;;;;;;;;;;;;;;;;5064271;28;1965;-79
2022/05/23 02:23:13;;;;;;;;;;;;;;;;;;5053996;28;1279;-79
2022/05/23 02:25:39;;;;;;;;;;;;;;;;;;5069076;28;1117;-79
2022/05/23 02:28:04;;;;;;;;;;;;;;;;;;5051948;28;1440;-79
2022/05/23 02:30:29;;;;;;;;;;;;;;;;;;5087572;28;1234;-79
2022/05/23 02:32:57;;;;;;;;;;;;;;;;;;5068022;28;1137;-79
2022/05/23 02:35:23;;;;;;;;;;;;;;;;;;5049003;28;1293;-78
2022/05/23 02:37:58;;;;;;;;;;;;;;;;;;5079494;28;1224;-78
2022/05/23 02:40:24;;;;;;;;;;;;;;;;;;5084445;28;1951;-78
2022/05/23 02:42:49;;;;;;;;;;;;;;;;;;5086141;28;1231;-78
2022/05/23 02:45:14;;;;;;;;;;;;;;;;;;5045527;28;1230;-78
2022/05/23 02:47:40;;;;;;;;;;;;;;;;;;5056746;28;1425;-78
2022/05/23 02:50:06;;;;;;;;;;;;;;;;;;5046420;28;1268;-78
2022/05/23 02:52:31;;;;;;;;;;;;;;;;;;5046406;28;1160;-78
2022/05/23 02:54:57;;;;;;;;;;;;;;;;;;5051033;28;1299;-78
2022/05/23 02:57:23;;;;;;;;;;;;;;;;;;5067175;28;1300;-78
2022/05/23 02:59:48;;;;;;;;;;;;;;;;;;5084580;28;1132;-78
2022/05/23 03:05:00;;;;;;;;;;;;;;;;;;5083099;28;1133;-79
2022/05/23 03:07:26;;;;;;;;;;;;;;;;;;5058458;28;1474;-79
2022/05/23 03:09:51;;;;;;;;;;;;;;;;;;5057202;28;1208;-78
2022/05/23 03:12:16;;;;;;;;;;;;;;;;;;5058265;28;1149;-78
2022/05/23 03:14:41;;;;;;;;;;;;;;;;;;5065508;28;1196;-79
2022/05/23 03:17:08;;;;;;;;;;;;;;;;;;5065978;28;1081;-78
2022/05/23 03:19:38;;;;;;;;;;;;;;;;;;5046503;28;1271;-78
2022/05/23 03:27:33;;;;;;;;;;;;;;;;;;5076752;28;1012;-78
2022/05/23 03:29:59;;;;;;;;;;;;;;;;;;5077623;28;1168;-78
2022/05/23 03:32:25;;;;;;;;;;;;;;;;;;5050705;28;1228;-79
2022/05/23 03:34:50;;;;;;;;;;;;;;;;;;5085241;28;1180;-79
2022/05/23 03:37:16;;;;;;;;;;;;;;;;;;5036168;28;1189;-78
2022/05/23 03:39:41;;;;;;;;;;;;;;;;;;5058854;28;1497;-79
2022/05/23 03:42:06;;;;;;;;;;;;;;;;;;5040675;28;1910;-78
2022/05/23 03:44:32;;;;;;;;;;;;;;;;;;5057482;28;1331;-80
2022/05/23 03:46:57;;;;;;;;;;;;;;;;;;5068701;28;1192;-78
2022/05/23 03:49:22;;;;;;;;;;;;;;;;;;5043400;28;1259;-78
2022/05/23 03:51:48;;;;;;;;;;;;;;;;;;5047038;28;1276;-79
2022/05/23 03:54:13;;;;;;;;;;;;;;;;;;5053998;28;1176;-79
2022/05/23 03:56:38;;;;;;;;;;;;;;;;;;5084945;28;1136;-79
2022/05/23 03:59:06;;;;;;;;;;;;;;;;;;5075240;28;1211;-79
2022/05/23 04:01:32;;;;;;;;;;;;;;;;;;5079948;28;1893;-76
2022/05/23 04:03:58;;;;;;;;;;;;;;;;;;5081233;28;1144;-79
2022/05/23 04:06:23;;;;;;;;;;;;;;;;;;5068061;28;1239;-79
2022/05/23 04:08:49;;;;;;;;;;;;;;;;;;5060043;28;1273;-79
2022/05/23 04:11:14;;;;;;;;;;;;;;;;;;5044409;28;1109;-79
2022/05/23 04:13:39;;;;;;;;;;;;;;;;;;5083324;28;1164;-79
2022/05/23 04:16:05;;;;;;;;;;;;;;;;;;5071833;28;1148;-77
2022/05/23 04:18:31;;;;;;;;;;;;;;;;;;5055687;28;1172;-78
2022/05/23 04:20:57;;;;;;;;;;;;;;;;;;5085013;28;1906;-79
2022/05/23 04:23:22;;;;;;;;;;;;;;;;;;5073628;28;1061;-79
2022/05/23 04:25:48;;;;;;;;;;;;;;;;;;5076424;28;1270;-79
2022/05/23 04:28:15;;;;;;;;;;;;;;;;;;5051423;28;1191;-79
2022/05/23 04:30:40;;;;;;;;;;;;;;;;;;5081443;28;1338;-79
2022/05/23 04:35:50;;;;;;;;;;;;;;;;;;5083000;28;1049;-78
2022/05/23 04:38:16;;;;;;;;;;;;;;;;;;5048904;28;1345;-78
2022/05/23 04:40:41;;;;;;;;;;;;;;;;;;5048499;28;1914;-78
2022/05/23 04:43:10;;;;;;;;;;;;;;;;;;5048995;28;1492;-78
2022/05/23 04:45:35;;;;;;;;;;;;;;;;;;5048687;28;1435;-79
2022/05/23 04:50:44;;;;;;;;;;;;;;;;;;5089200;28;1061;-78
2022/05/23 04:53:11;;;;;;;;;;;;;;;;;;5063899;28;1224;-76
2022/05/23 04:55:38;;;;;;;;;;;;;;;;;;5055710;28;1180;-79
2022/05/23 04:58:04;;;;;;;;;;;;;;;;;;5067608;28;1133;-78
2022/05/23 05:00:35;;;;;;;;;;;;;;;;;;5066584;28;1953;-78
2022/05/23 05:03:01;;;;;;;;;;;;;;;;;;5053908;28;1325;-78
2022/05/23 05:05:29;;;;;;;;;;;;;;;;;;5055060;28;1092;-78
2022/05/23 05:07:55;;;;;;;;;;;;;;;;;;5063587;28;1164;-78
2022/05/23 05:10:23;;;;;;;;;;;;;;;;;;5063995;28;1237;-78
2022/05/23 05:12:48;;;;;;;;;;;;;;;;;;5069006;28;1037;-80
2022/05/23 05:15:14;;;;;;;;;;;;;;;;;;5082218;28;1137;-78
2022/05/23 05:17:39;;;;;;;;;;;;;;;;;;5059838;28;1259;-79
2022/05/23 05:20:05;;;;;;;;;;;;;;;;;;5061681;28;1239;-79
2022/05/23 05:22:31;;;;;;;;;;;;;;;;;;5058141;28;1918;-79
2022/05/23 05:24:56;;;;;;;;;;;;;;;;;;5070885;28;1224;-79
2022/05/23 05:27:21;;;;;;;;;;;;;;;;;;5067341;28;1067;-78
2022/05/23 05:29:46;;;;;;;;;;;;;;;;;;5080613;28;1164;-79
2022/05/23 05:32:12;;;;;;;;;;;;;;;;;;5070934;28;1136;-79
2022/05/23 05:34:43;;;;;;;;;;;;;;;;;;5068500;28;1252;-79
2022/05/23 05:37:14;;;;;;;;;;;;;;;;;;5049889;28;1179;-79
2022/05/23 05:39:41;;;;;;;;;;;;;;;;;;5064066;28;1229;-79
2022/05/23 05:42:11;;;;;;;;;;;;;;;;;;5070580;28;1890;-79
2022/05/23 05:44:39;;;;;;;;;;;;;;;;;;5063918;28;1402;-79
2022/05/23 05:47:08;;;;;;;;;;;;;;;;;;5071659;28;1137;-78
2022/05/23 05:49:35;;;;;;;;;;;;;;;;;;5048177;28;1301;-78
2022/05/23 05:52:01;;;;;;;;;;;;;;;;;;5071596;28;1161;-79
2022/05/23 05:54:29;;;;;;;;;;;;;;;;;;5070958;28;1630;-78
2022/05/23 05:56:55;;;;;;;;;;;;;;;;;;5069727;28;1109;-79
2022/05/23 05:59:21;;;;;;;;;;;;;;;;;;5080085;28;1193;-79
2022/05/23 06:01:46;;;;;;;;;;;;;;;;;;5089495;28;1886;-78
2022/05/23 06:04:11;;;;;;;;;;;;;;;;;;5074486;28;1328;-79
2022/05/23 06:12:07;;;;;;;;;;;;;;;;;;5065950;28;1012;-78
2022/05/23 06:14:32;;;;;;;;;;;;;;;;;;5075409;28;1093;-78
2022/05/23 06:16:57;;;;;;;;;;;;;;;;;;5034485;28;1300;-78
2022/05/23 06:19:22;;;;;;;;;;;;;;;;;;5046262;28;891;-78
2022/05/23 06:21:48;;;;;;;;;;;;;;;;;;5044730;28;1996;-78
2022/05/23 06:24:14;;;;;;;;;;;;;;;;;;5043568;28;899;-79
2022/05/23 06:26:40;;;;;;;;;;;;;;;;;;5045136;28;1303;-78
2022/05/23 06:29:05;;;;;;;;;;;;;;;;;;5045142;28;1200;-78
2022/05/23 06:31:30;;;;;;;;;;;;;;;;;;5061511;28;822;-79
2022/05/23 06:33:56;;;;;;;;;;;;;;;;;;5045155;28;1173;-78
2022/05/23 06:36:21;;;;;;;;;;;;;;;;;;5046668;28;736;-79
2022/05/23 06:38:51;;;;;;;;;;;;;;;;;;5044538;28;958;-79
2022/05/23 06:41:19;;;;;;;;;;;;;;;;;;5045137;28;1921;-78
2022/05/23 06:43:44;;;;;;;;;;;;;;;;;;5049009;28;1307;-77
2022/05/23 06:46:12;;;;;;;;;;;;;;;;;;5069269;28;1156;-78
2022/05/23 06:48:37;;;;;;;;;;;;;;;;;;5066005;28;1394;-78
2022/05/23 06:51:03;;;;;;;;;;;;;;;;;;5069318;28;1610;-78
2022/05/23 06:53:29;;;;;;;;;;;;;;;;;;5050945;28;1235;-77
2022/05/23 06:55:55;;;;;;;;;;;;;;;;;;5077142;28;1176;-78
2022/05/23 06:58:21;;;;;;;;;;;;;;;;;;5085206;28;1184;-77
2022/05/23 07:00:48;;;;;;;;;;;;;;;;;;5057939;28;1935;-78
2022/05/23 07:03:13;;;;;;;;;;;;;;;;;;5045372;28;1248;-78
2022/05/23 07:13:51;;;;;;;;;;;;;;;;;;5045969;28;660;-78
2022/05/23 07:16:17;;;;;;;;;;;;;;;;;;5045714;28;827;-77
2022/05/23 07:18:43;;;;;;;;;;;;;;;;;;5042618;28;1352;-77
2022/05/23 07:21:09;;;;;;;;;;;;;;;;;;5060601;28;1906;-77
2022/05/23 07:23:35;;;;;;;;;;;;;;;;;;5041871;28;888;-77
2022/05/23 07:26:01;;;;;;;;;;;;;;;;;;5051052;28;1196;-77
2022/05/23 07:28:26;;;;;;;;;;;;;;;;;;5064151;28;1160;-82
2022/05/23 07:30:51;;;;;;;;;;;;;;;;;;5062581;28;1239;-81
2022/05/23 07:33:16;;;;;;;;;;;;;;;;;;5063891;28;1293;-82
2022/05/23 07:35:42;;;;;;;;;;;;;;;;;;5078206;28;1208;-82
2022/05/23 07:38:09;;;;;;;;;;;;;;;;;;5075686;28;1145;-80
2022/05/23 07:40:34;;;;;;;;;;;;;;;;;;5083441;28;1965;-81
2022/05/23 07:42:59;;;;;;;;;;;;;;;;;;5045058;28;1220;-78
2022/05/23 07:45:25;;;;;;;;;;;;;;;;;;5064960;28;1200;-79
2022/05/23 07:47:50;;;;;;;;;;;;;;;;;;5068102;28;1172;-79
2022/05/23 07:50:16;;;;;;;;;;;;;;;;;;5088072;28;950;-79
2022/05/23 08:00:30;;;;;;;;;;;;;;;;;;5065066;28;998;-75
2022/05/23 08:00:56;;;;;;;;;;;;;;;;;;5072807;28;1897;-76
2022/05/23 08:03:22;;;;;;;;;;;;;;;;;;5093538;28;1167;-75
2022/05/23 08:05:48;;;;;;;;;;;;;;;;;;5074328;28;1202;-75
2022/05/23 08:08:13;;;;;;;;;;;;;;;;;;5089357;28;841;-76
2022/05/23 08:10:38;;;;;;;;;;;;;;;;;;5089052;28;866;-76
2022/05/23 08:13:09;;;;;;;;;;;;;;;;;;5092419;28;854;-76
2022/05/23 08:15:35;;;;;;;;;;;;;;;;;;5090521;28;1140;-77
2022/05/23 08:18:00;;;;;;;;;;;;;;;;;;5089675;28;1025;-76
2022/05/23 08:20:26;;;;;;;;;;;;;;;;;;5090373;28;1971;-76
2022/05/23 08:22:55;;;;;;;;;;;;;;;;;;5054047;28;1219;-76
2022/05/23 08:25:21;;;;;;;;;;;;;;;;;;5089855;28;1140;-76
2022/05/23 08:27:46;;;;;;;;;;;;;;;;;;5089633;28;1226;-77
2022/05/23 08:30:13;;;;;;;;;;;;;;;;;;5073014;28;1196;-76
2022/05/23 08:32:39;;;;;;;;;;;;;;;;;;5072219;28;1243;-76
2022/05/23 08:35:04;;;;;;;;;;;;;;;;;;5091798;28;1097;-77
2022/05/23 08:37:30;;;;;;;;;;;;;;;;;;5086229;28;1242;-77
2022/05/23 08:39:55;;;;;;;;;;;;;;;;;;5065298;28;1287;-76
2022/05/23 08:42:37;;;;;;;;;;;;;;;;;;5062246;28;1995;-75
2022/05/23 08:45:10;;;;;;;;;;;;;;;;;;5085857;28;1101;-75
2022/05/23 08:47:51;;;;;;;;;;;;;;;;;;5077440;28;1211;-76
2022/05/23 08:50:29;;;;;;;;;;;;;;;;;;5078468;28;1176;-75
2022/05/23 08:52:58;;;;;;;;;;;;;;;;;;5059900;28;1129;-74
2022/05/23 08:55:28;;;;;;;;;;;;;;;;;;5068949;28;1157;-76
2022/05/23 08:58:12;;;;;;;;;;;;;;;;;;5051823;28;1243;-75
2022/05/23 09:00:43;;;;;;;;;;;;;;;;;;5050347;28;1932;-74
2022/05/23 09:03:12;;;;;;;;;;;;;;;;;;5050979;28;1185;-75
2022/05/23 09:05:40;;;;;;;;;;;;;;;;;;5048469;28;1132;-74
2022/05/23 09:08:11;;;;;;;;;;;;;;;;;;5044467;28;1280;-74
2022/05/23 09:10:46;;;;;;;;;;;;;;;;;;5045381;28;1149;-74
2022/05/23 09:13:12;;;;;;;;;;;;;;;;;;5049007;28;1156;-76
2022/05/23 09:15:38;;;;;;;;;;;;;;;;;;5047348;28;1057;-75
2022/05/23 09:18:10;;;;;;;;;;;;;;;;;;5048757;28;1196;-74
2022/05/23 09:20:36;;;;;;;;;;;;;;;;;;5046935;28;1910;-75
2022/05/23 09:23:06;;;;;;;;;;;;;;;;;;5046494;28;1373;-75
2022/05/23 09:25:34;;;;;;;;;;;;;;;;;;5046574;28;1120;-77
2022/05/23 09:28:19;;;;;;;;;;;;;;;;;;5046762;28;1129;-77
2022/05/23 09:30:47;;;;;;;;;;;;;;;;;;5044887;28;1962;-77
2022/05/23 09:33:14;;;;;;;;;;;;;;;;;;5048990;28;1192;-77
2022/05/23 09:35:43;;;;;;;;;;;;;;;;;;5046215;28;1200;-77
2022/05/23 09:38:14;;;;;;;;;;;;;;;;;;5046177;28;1145;-77
2022/05/23 09:40:40;;;;;;;;;;;;;;;;;;5045286;28;1890;-79
2022/05/23 09:49:09;;;;;;;;;;;;;;;;;;5049039;28;651;-79
2022/05/23 09:51:54;;;;;;;;;;;;;;;;;;5047962;28;985;-78
2022/05/23 09:54:34;;;;;;;;;;;;;;;;;;5043674;28;874;-79
2022/05/23 09:57:01;;;;;;;;;;;;;;;;;;5046069;28;1167;-79
2022/05/23 09:59:29;;;;;;;;;;;;;;;;;;5048086;28;1150;-77
2022/05/23 10:01:57;;;;;;;;;;;;;;;;;;5046736;28;1886;-78
2022/05/23 10:04:27;;;;;;;;;;;;;;;;;;5068065;28;1112;-78
2022/05/23 10:06:53;;;;;;;;;;;;;;;;;;5067250;28;1315;-79
2022/05/23 10:09:37;;;;;;;;;;;;;;;;;;5065126;28;1513;-78
2022/05/23 10:12:08;;;;;;;;;;;;;;;;;;5067490;28;1081;-79
2022/05/23 10:14:41;;;;;;;;;;;;;;;;;;5084226;28;1243;-79
2022/05/23 10:17:06;;;;;;;;;;;;;;;;;;5086970;28;1180;-78
2022/05/23 10:19:34;;;;;;;;;;;;;;;;;;5062056;28;1440;-78
2022/05/23 10:22:20;;;;;;;;;;;;;;;;;;5052601;28;1879;-78
2022/05/23 10:25:00;;;;;;;;;;;;;;;;;;5045364;28;1129;-78
2022/05/23 10:27:29;;;;;;;;;;;;;;;;;;5049104;28;1339;-77
2022/05/23 10:29:57;;;;;;;;;;;;;;;;;;5065649;28;1145;-77
2022/05/23 10:32:27;;;;;;;;;;;;;;;;;;5067703;28;1113;-77
2022/05/23 10:34:57;;;;;;;;;;;;;;;;;;5084463;28;1185;-77
2022/05/23 10:37:23;;;;;;;;;;;;;;;;;;5053597;28;1287;-77
2022/05/23 10:42:39;;;;;;;;;;;;;;;;;;5069168;28;1886;-77
2022/05/23 10:45:07;;;;;;;;;;;;;;;;;;5069794;28;1204;-77
2022/05/23 10:47:48;;;;;;;;;;;;;;;;;;5049601;28;1387;-78
2022/05/23 10:50:23;;;;;;;;;;;;;;;;;;5087126;28;1200;-76
2022/05/23 10:53:01;;;;;;;;;;;;;;;;;;5065022;28;1048;-75
2022/05/23 10:55:33;;;;;;;;;;;;;;;;;;5071177;28;1070;-76
2022/05/23 10:58:17;;;;;;;;;;;;;;;;;;5086310;28;1204;-77
2022/05/23 11:00:59;;;;;;;;;;;;;;;;;;5066383;28;1945;-76
2022/05/23 11:03:24;;;;;;;;;;;;;;;;;;5067094;28;1204;-78
2022/05/23 11:05:52;;;;;;;;;;;;;;;;;;5085747;28;1101;-78
2022/05/23 11:08:28;;;;;;;;;;;;;;;;;;5063249;28;1634;-78
2022/05/23 11:11:01;;;;;;;;;;;;;;;;;;5083814;28;1085;-78
2022/05/23 11:13:45;;;;;;;;;;;;;;;;;;5085083;28;1168;-79
2022/05/23 11:16:26;;;;;;;;;;;;;;;;;;5079700;28;1200;-79
2022/05/23 11:18:57;;;;;;;;;;;;;;;;;;5064386;28;1036;-78
2022/05/23 11:21:41;;;;;;;;;;;;;;;;;;5061764;28;1918;-80
2022/05/23 11:24:13;;;;;;;;;;;;;;;;;;5064793;28;1350;-80
2022/05/23 11:26:50;;;;;;;;;;;;;;;;;;5086679;28;885;-80
2022/05/23 11:35:07;;;;;;;;;;;;;;;;;;5068016;28;957;-78
2022/05/23 11:37:48;;;;;;;;;;;;;;;;;;5059660;28;1413;-79
2022/05/23 11:40:33;;;;;;;;;;;;;;;;;;5070378;28;1349;-80
2022/05/23 11:43:01;;;;;;;;;;;;;;;;;;5056498;28;1422;-78
2022/05/23 11:48:29;;;;;;;;;;;;;;;;;;5070393;28;1163;-82
2022/05/23 11:50:56;;;;;;;;;;;;;;;;;;5073991;28;1149;-87
2022/05/23 11:53:21;;;;;;;;;;;;;;;;;;5058158;28;1240;-87
2022/05/23 11:55:49;;;;;;;;;;;;;;;;;;5073574;28;1361;-85
2022/05/23 11:58:17;;;;;;;;;;;;;;;;;;5093726;28;1148;-85
2022/05/23 12:01:00;;;;;;;;;;;;;;;;;;5058485;28;1943;-85
2022/05/23 12:03:25;;;;;;;;;;;;;;;;;;5053457;28;1154;-85
2022/05/23 12:06:11;;;;;;;;;;;;;;;;;;5067873;28;1314;-85
2022/05/23 12:08:38;;;;;;;;;;;;;;;;;;5047582;28;1241;-85
2022/05/23 12:11:19;;;;;;;;;;;;;;;;;;5047846;28;1584;-86
2022/05/23 12:14:07;;;;;;;;;;;;;;;;;;5049559;28;1374;-84
2022/05/23 12:16:34;;;;;;;;;;;;;;;;;;5050425;28;1405;-87
2022/05/23 12:19:18;;;;;;;;;;;;;;;;;;5049304;28;1301;-85
2022/05/23 12:21:48;;;;;;;;;;;;;;;;;;5049276;28;1913;-85
2022/05/23 12:24:23;;;;;;;;;;;;;;;;;;5047322;28;1215;-85
2022/05/23 12:26:53;;;;;;;;;;;;;;;;;;5049098;28;1301;-84
2022/05/23 12:29:32;;;;;;;;;;;;;;;;;;5051633;28;968;-87
2022/05/23 12:32:16;;;;;;;;;;;;;;;;;;5067803;28;1113;-85
2022/05/23 12:34:43;;;;;;;;;;;;;;;;;;5053014;28;1248;-85
2022/05/23 12:37:20;;;;;;;;;;;;;;;;;;5049458;28;1208;-86
2022/05/23 12:39:51;;;;;;;;;;;;;;;;;;5070746;28;1269;-85
2022/05/23 12:42:22;;;;;;;;;;;;;;;;;;5091239;28;1893;-85
2022/05/23 12:44:53;;;;;;;;;;;;;;;;;;5091950;28;973;-85
2022/05/23 12:47:19;;;;;;;;;;;;;;;;;;5071662;28;1230;-85
2022/05/23 12:49:53;;;;;;;;;;;;;;;;;;5091119;28;917;-85
2022/05/23 12:52:37;;;;;;;;;;;;;;;;;;5070944;28;1230;-87
2022/05/23 12:55:10;;;;;;;;;;;;;;;;;;5069076;28;1587;-85
2022/05/23 12:57:54;;;;;;;;;;;;;;;;;;5074107;28;1307;-85
2022/05/23 13:00:22;;;;;;;;;;;;;;;;;;5073037;28;1188;-83
2022/05/23 13:02:53;;;;;;;;;;;;;;;;;;5090489;28;1889;-83
2022/05/23 13:05:24;;;;;;;;;;;;;;;;;;5072595;28;1130;-81
2022/05/23 13:08:01;;;;;;;;;;;;;;;;;;5067982;28;1253;-80
2022/05/23 13:10:32;;;;;;;;;;;;;;;;;;5088952;28;1157;-80
2022/05/23 13:13:07;;;;;;;;;;;;;;;;;;5087434;28;1144;-82
2022/05/23 13:15:34;;;;;;;;;;;;;;;;;;5088279;28;1172;-82
2022/05/23 13:23:32;;;;;;;;;;;;;;;;;;5063926;28;966;-82
2022/05/23 13:26:04;;;;;;;;;;;;;;;;;;5062957;28;1171;-81
2022/05/23 13:28:31;;;;;;;;;;;;;;;;;;5088537;28;1192;-80
2022/05/23 13:30:56;;;;;;;;;;;;;;;;;;5068482;28;1173;-80
2022/05/23 13:33:31;;;;;;;;;;;;;;;;;;5049962;28;1220;-78
2022/05/23 13:35:57;;;;;;;;;;;;;;;;;;5068144;28;1167;-77
2022/05/23 13:38:27;;;;;;;;;;;;;;;;;;5084203;28;1235;-78
2022/05/23 13:40:57;;;;;;;;;;;;;;;;;;5087647;28;1929;-80
2022/05/23 13:43:24;;;;;;;;;;;;;;;;;;5069728;28;1344;-80
2022/05/23 13:46:02;;;;;;;;;;;;;;;;;;5068869;28;1503;-80
2022/05/23 13:48:47;;;;;;;;;;;;;;;;;;5069369;28;1417;-81
2022/05/23 13:51:16;;;;;;;;;;;;;;;;;;5067735;28;1255;-81
2022/05/23 13:53:53;;;;;;;;;;;;;;;;;;5082189;28;1208;-76
2022/05/23 13:56:18;;;;;;;;;;;;;;;;;;5068095;28;1176;-76
2022/05/23 13:58:50;;;;;;;;;;;;;;;;;;5087774;28;1267;-75
2022/05/23 14:01:35;;;;;;;;;;;;;;;;;;5067811;28;1906;-76
2022/05/23 14:04:21;;;;;;;;;;;;;;;;;;5082000;28;1373;-74
2022/05/23 14:06:52;;;;;;;;;;;;;;;;;;5066505;28;1188;-76
2022/05/23 14:09:17;;;;;;;;;;;;;;;;;;5043544;28;1326;-75
2022/05/23 14:11:48;;;;;;;;;;;;;;;;;;5080040;28;1133;-75
2022/05/23 14:14:19;;;;;;;;;;;;;;;;;;5063831;28;1193;-75
2022/05/23 14:16:56;;;;;;;;;;;;;;;;;;5069722;28;1263;-76
2022/05/23 14:19:24;;;;;;;;;;;;;;;;;;5069139;28;1191;-75
2022/05/23 14:22:01;;;;;;;;;;;;;;;;;;5085737;28;1955;-75
2022/05/23 14:24:28;;;;;;;;;;;;;;;;;;5068432;28;1176;-76
2022/05/23 14:27:01;;;;;;;;;;;;;;;;;;5067736;28;1173;-76
2022/05/23 14:29:27;;;;;;;;;;;;;;;;;;5087550;28;1157;-76
2022/05/23 14:31:53;;;;;;;;;;;;;;;;;;5051331;28;1252;-75
2022/05/23 14:34:25;;;;;;;;;;;;;;;;;;5059885;28;1307;-76
2022/05/23 14:36:52;;;;;;;;;;;;;;;;;;5064192;28;1296;-76
2022/05/23 14:39:21;;;;;;;;;;;;;;;;;;5043717;28;1229;-76
2022/05/23 14:41:46;;;;;;;;;;;;;;;;;;5067358;28;1947;-77
2022/05/23 14:44:14;;;;;;;;;;;;;;;;;;5048319;28;1165;-76
2022/05/23 14:47:01;;;;;;;;;;;;;;;;;;5049128;28;1335;-76
2022/05/23 14:49:30;;;;;;;;;;;;;;;;;;5049921;28;1098;-77
2022/05/23 14:51:55;;;;;;;;;;;;;;;;;;5064590;28;937;-77
2022/05/23 15:00:37;;;;;;;;;;;;;;;;;;5065841;28;936;-76
2022/05/23 15:02:53;;;;;;;;;;;;;;;;;;5066788;28;1890;-81
2022/05/23 15:05:19;;;;;;;;;;;;;;;;;;5064458;28;1327;-82
2022/05/23 15:07:45;;;;;;;;;;;;;;;;;;5063123;28;1160;-76
2022/05/23 15:10:12;;;;;;;;;;;;;;;;;;5061442;28;1374;-79
2022/05/23 15:12:38;;;;;;;;;;;;;;;;;;5067574;28;1125;-79
2022/05/23 15:15:04;;;;;;;;;;;;;;;;;;5041390;28;1367;-77
2022/05/23 15:17:30;;;;;;;;;;;;;;;;;;5050911;28;1211;-79
2022/05/23 15:19:55;;;;;;;;;;;;;;;;;;5057168;28;1216;-79
2022/05/23 15:22:27;;;;;;;;;;;;;;;;;;5057745;28;1965;-79
2022/05/23 15:24:52;;;;;;;;;;;;;;;;;;5060067;28;1168;-79
2022/05/23 15:27:28;;;;;;;;;;;;;;;;;;5058878;28;1132;-80
2022/05/23 15:29:55;;;;;;;;;;;;;;;;;;5060917;28;1008;-80
2022/05/23 15:32:20;;;;;;;;;;;;;;;;;;5073024;28;1207;-77
2022/05/23 15:34:49;;;;;;;;;;;;;;;;;;5056346;28;1168;-78
2022/05/23 15:37:18;;;;;;;;;;;;;;;;;;5052405;28;1343;-77
2022/05/23 15:39:43;;;;;;;;;;;;;;;;;;5040454;28;1211;-79
2022/05/23 15:42:12;;;;;;;;;;;;;;;;;;5056782;28;1944;-79
2022/05/23 15:44:38;;;;;;;;;;;;;;;;;;5078221;28;1220;-78
2022/05/23 15:47:09;;;;;;;;;;;;;;;;;;5056241;28;1351;-80
2022/05/23 15:49:34;;;;;;;;;;;;;;;;;;5065813;28;1186;-80
2022/05/23 15:52:02;;;;;;;;;;;;;;;;;;5067457;28;1153;-79
2022/05/23 15:54:31;;;;;;;;;;;;;;;;;;5046860;28;1221;-79
2022/05/23 15:56:56;;;;;;;;;;;;;;;;;;5045078;28;1790;-80
2022/05/23 15:59:22;;;;;;;;;;;;;;;;;;5058778;28;1204;-80
2022/05/23 16:01:50;;;;;;;;;;;;;;;;;;5057659;28;2056;-80
2022/05/23 16:04:16;;;;;;;;;;;;;;;;;;5042160;28;1355;-79
2022/05/23 16:06:42;;;;;;;;;;;;;;;;;;5047336;28;1294;-80
2022/05/23 16:09:14;;;;;;;;;;;;;;;;;;5058098;28;1192;-78
2022/05/23 16:11:49;;;;;;;;;;;;;;;;;;5065692;28;1213;-79
2022/05/23 16:14:15;;;;;;;;;;;;;;;;;;5081656;28;1192;-78
2022/05/23 16:16:42;;;;;;;;;;;;;;;;;;5046857;28;1224;-80
2022/05/23 16:19:14;;;;;;;;;;;;;;;;;;5073333;28;1128;-81
2022/05/23 16:21:39;;;;;;;;;;;;;;;;;;5052215;28;1902;-81
2022/05/23 16:24:05;;;;;;;;;;;;;;;;;;5049962;28;1311;-78
2022/05/23 16:26:30;;;;;;;;;;;;;;;;;;5050422;28;1299;-78
2022/05/23 16:28:56;;;;;;;;;;;;;;;;;;5069246;28;1295;-79
2022/05/23 16:31:21;;;;;;;;;;;;;;;;;;5052432;28;1338;-80
2022/05/23 16:36:38;;;;;;;;;;;;;;;;;;5086358;28;1056;-80
2022/05/23 16:39:20;;;;;;;;;;;;;;;;;;5055562;28;1064;-80
2022/05/23 16:41:46;;;;;;;;;;;;;;;;;;5066344;28;1886;-78
2022/05/23 16:44:16;;;;;;;;;;;;;;;;;;5066989;28;1177;-79
2022/05/23 16:46:42;;;;;;;;;;;;;;;;;;5067911;28;1130;-79
2022/05/23 16:49:08;;;;;;;;;;;;;;;;;;5068873;28;1136;-79
2022/05/23 16:51:33;;;;;;;;;;;;;;;;;;5085811;28;1140;-78
2022/05/23 16:53:59;;;;;;;;;;;;;;;;;;5054773;28;1340;-80
2022/05/23 16:56:24;;;;;;;;;;;;;;;;;;5051807;28;1317;-80
2022/05/23 16:58:51;;;;;;;;;;;;;;;;;;5071625;28;1198;-80
2022/05/23 17:01:17;;;;;;;;;;;;;;;;;;5074059;28;1878;-81
2022/05/23 17:03:44;;;;;;;;;;;;;;;;;;5055051;28;1374;-82
2022/05/23 17:06:09;;;;;;;;;;;;;;;;;;5067706;28;1424;-81
2022/05/23 17:08:35;;;;;;;;;;;;;;;;;;5053257;28;1195;-80
2022/05/23 17:11:00;;;;;;;;;;;;;;;;;;5060877;28;1204;-82
2022/05/23 17:13:25;;;;;;;;;;;;;;;;;;5066997;28;1054;-81
2022/05/23 17:15:52;;;;;;;;;;;;;;;;;;5092694;28;1236;-82
2022/05/23 17:18:19;;;;;;;;;;;;;;;;;;5091129;28;1204;-82
2022/05/23 17:20:45;;;;;;;;;;;;;;;;;;5067142;28;1897;-82
2022/05/23 17:23:11;;;;;;;;;;;;;;;;;;5062941;28;1168;-81
2022/05/23 17:25:37;;;;;;;;;;;;;;;;;;5068632;28;1208;-79
2022/05/23 17:28:12;;;;;;;;;;;;;;;;;;5082180;28;1397;-80
2022/05/23 17:30:41;;;;;;;;;;;;;;;;;;5056390;28;1314;-81
2022/05/23 17:33:06;;;;;;;;;;;;;;;;;;5055278;28;1196;-82
2022/05/23 17:35:32;;;;;;;;;;;;;;;;;;5077405;28;1125;-80
2022/05/23 17:38:01;;;;;;;;;;;;;;;;;;5085891;28;1203;-81
2022/05/23 17:40:28;;;;;;;;;;;;;;;;;;5066051;28;1090;-81
2022/05/23 17:42:54;;;;;;;;;;;;;;;;;;5065493;28;1890;-81
2022/05/23 17:45:21;;;;;;;;;;;;;;;;;;5066703;28;1129;-81
2022/05/23 17:47:47;;;;;;;;;;;;;;;;;;5044827;28;1288;-82
2022/05/23 17:50:12;;;;;;;;;;;;;;;;;;5084792;28;1129;-83
2022/05/23 17:52:38;;;;;;;;;;;;;;;;;;5085454;28;1028;-81
2022/05/23 17:55:03;;;;;;;;;;;;;;;;;;5067635;28;1124;-83
2022/05/23 17:57:28;;;;;;;;;;;;;;;;;;5032034;28;1216;-83
2022/05/23 17:59:54;;;;;;;;;;;;;;;;;;5064508;28;1141;-83
2022/05/23 18:02:23;;;;;;;;;;;;;;;;;;5048019;28;1974;-82
2022/05/23 18:04:48;;;;;;;;;;;;;;;;;;5049139;28;1618;-83
2022/05/23 18:07:13;;;;;;;;;;;;;;;;;;5046638;28;1196;-82
2022/05/23 18:09:39;;;;;;;;;;;;;;;;;;5044570;28;1125;-82
2022/05/23 18:12:04;;;;;;;;;;;;;;;;;;5047697;28;1168;-85
2022/05/23 18:19:58;;;;;;;;;;;;;;;;;;5085730;28;1021;-82
2022/05/23 18:22:24;;;;;;;;;;;;;;;;;;5084715;28;1918;-84
2022/05/23 18:24:49;;;;;;;;;;;;;;;;;;5050450;28;1206;-82
2022/05/23 18:27:14;;;;;;;;;;;;;;;;;;5066758;28;1133;-83
2022/05/23 18:29:40;;;;;;;;;;;;;;;;;;5050427;28;1212;-82
2022/05/23 18:32:05;;;;;;;;;;;;;;;;;;5078217;28;1128;-84